createdAt,value
2018-09-24T00:00:23.000Z,31
2018-09-24T00:01:23.000Z,31
2018-09-24T00:02:23.000Z,31
2018-09-24T00:03:23.000Z,31
2018-09-24T00:04:23.000Z,31
2018-09-24T00:06:23.000Z,31
2018-09-24T00:07:23.000Z,31
2018-09-24T00:09:23.000Z,31
2018-09-24T00:10:23.000Z,31
2018-09-24T00:11:23.000Z,31
2018-09-24T00:12:23.000Z,31
2018-09-24T00:13:23.000Z,31
2018-09-24T00:14:23.000Z,31
2018-09-24T00:15:23.000Z,31
2018-09-24T00:16:23.000Z,31
2018-09-24T00:17:23.000Z,31
2018-09-24T00:18:23.000Z,31
2018-09-24T00:19:23.000Z,31
2018-09-24T00:20:23.000Z,31
2018-09-24T00:21:23.000Z,31
2018-09-24T00:22:23.000Z,31
2018-09-24T00:23:23.000Z,31
2018-09-24T00:24:23.000Z,31
2018-09-24T00:26:23.000Z,31
2018-09-24T00:27:23.000Z,31
2018-09-24T00:28:23.000Z,31
2018-09-24T00:29:23.000Z,31
2018-09-24T00:30:23.000Z,31
2018-09-24T00:32:23.000Z,31
2018-09-24T00:33:23.000Z,31
2018-09-24T00:34:23.000Z,31
2018-09-24T00:35:23.000Z,31
2018-09-24T00:36:23.000Z,31
2018-09-24T00:37:23.000Z,31
2018-09-24T00:38:23.000Z,31
2018-09-24T00:39:23.000Z,31
2018-09-24T00:40:23.000Z,31
2018-09-24T00:41:23.000Z,31
2018-09-24T00:42:23.000Z,31
2018-09-24T00:43:23.000Z,31
2018-09-24T00:44:23.000Z,31
2018-09-24T00:45:23.000Z,31
2018-09-24T00:46:23.000Z,31
2018-09-24T00:47:23.000Z,31
2018-09-24T00:48:23.000Z,31
2018-09-24T00:49:23.000Z,31
2018-09-24T00:50:23.000Z,31
2018-09-24T00:51:23.000Z,31
2018-09-24T00:52:23.000Z,31
2018-09-24T00:54:23.000Z,31
2018-09-24T00:55:23.000Z,31
2018-09-24T00:56:23.000Z,31
2018-09-24T00:57:23.000Z,31
2018-09-24T00:58:23.000Z,31
2018-09-24T00:59:23.000Z,31
2018-09-24T01:01:23.000Z,31
2018-09-24T01:03:23.000Z,31
2018-09-24T01:04:23.000Z,31
2018-09-24T01:05:23.000Z,31
2018-09-24T01:06:23.000Z,31
2018-09-24T01:07:23.000Z,31
2018-09-24T01:08:23.000Z,31
2018-09-24T01:09:23.000Z,31
2018-09-24T01:10:23.000Z,31
2018-09-24T01:11:23.000Z,31
2018-09-24T01:12:23.000Z,31
2018-09-24T01:13:23.000Z,31
2018-09-24T01:14:23.000Z,31
2018-09-24T01:15:23.000Z,31
2018-09-24T01:16:23.000Z,31
2018-09-24T01:17:23.000Z,31
2018-09-24T01:18:23.000Z,31
2018-09-24T01:19:23.000Z,31
2018-09-24T01:20:23.000Z,31
2018-09-24T01:22:23.000Z,31
2018-09-24T01:23:23.000Z,31
2018-09-24T01:24:23.000Z,31
2018-09-24T01:25:23.000Z,31
2018-09-24T01:26:23.000Z,31
2018-09-24T01:28:23.000Z,31
2018-09-24T01:29:23.000Z,31
2018-09-24T01:30:23.000Z,31
2018-09-24T01:32:23.000Z,31
2018-09-24T01:33:23.000Z,31
2018-09-24T01:34:23.000Z,31
2018-09-24T01:35:23.000Z,31
2018-09-24T01:36:23.000Z,31
2018-09-24T01:37:23.000Z,31
2018-09-24T01:38:23.000Z,31
2018-09-24T01:39:23.000Z,31
2018-09-24T01:41:23.000Z,31
2018-09-24T01:42:23.000Z,31
2018-09-24T01:43:23.000Z,31
2018-09-24T01:45:23.000Z,31
2018-09-24T01:46:23.000Z,31
2018-09-24T01:47:23.000Z,31
2018-09-24T01:48:23.000Z,31
2018-09-24T01:49:23.000Z,31
2018-09-24T01:50:23.000Z,31
2018-09-24T01:51:23.000Z,31
2018-09-24T01:52:23.000Z,31
2018-09-24T01:53:23.000Z,31
2018-09-24T01:54:23.000Z,31
2018-09-24T01:55:22.000Z,31
2018-09-24T01:56:22.000Z,31
2018-09-24T01:57:22.000Z,31
2018-09-24T01:58:22.000Z,31
2018-09-24T01:59:22.000Z,31
2018-09-24T02:01:22.000Z,31
2018-09-24T02:02:22.000Z,31
2018-09-24T02:03:22.000Z,31
2018-09-24T02:04:22.000Z,31
2018-09-24T02:05:22.000Z,31
2018-09-24T02:06:22.000Z,31
2018-09-24T02:07:22.000Z,31
2018-09-24T02:08:22.000Z,31
2018-09-24T02:09:22.000Z,31
2018-09-24T02:10:22.000Z,31
2018-09-24T02:12:22.000Z,31
2018-09-24T02:13:22.000Z,31
2018-09-24T02:14:22.000Z,31
2018-09-24T02:15:22.000Z,31
2018-09-24T02:16:22.000Z,31
2018-09-24T02:17:22.000Z,31
2018-09-24T02:18:22.000Z,31
2018-09-24T02:19:22.000Z,31
2018-09-24T02:20:22.000Z,31
2018-09-24T02:21:22.000Z,31
2018-09-24T02:22:22.000Z,31
2018-09-24T02:23:22.000Z,31
2018-09-24T02:24:22.000Z,31
2018-09-24T02:25:22.000Z,31
2018-09-24T02:26:22.000Z,31
2018-09-24T02:27:22.000Z,31
2018-09-24T02:28:22.000Z,31
2018-09-24T02:29:22.000Z,31
2018-09-24T02:30:22.000Z,31
2018-09-24T02:31:22.000Z,31
2018-09-24T02:32:22.000Z,31
2018-09-24T02:33:22.000Z,31
2018-09-24T02:34:22.000Z,31
2018-09-24T02:35:22.000Z,31
2018-09-24T02:36:22.000Z,31
2018-09-24T02:38:22.000Z,31
2018-09-24T02:39:22.000Z,31
2018-09-24T02:40:22.000Z,31
2018-09-24T02:41:22.000Z,31
2018-09-24T02:42:22.000Z,31
2018-09-24T02:44:22.000Z,31
2018-09-24T02:45:22.000Z,31
2018-09-24T02:47:22.000Z,31
2018-09-24T02:48:22.000Z,31
2018-09-24T02:49:22.000Z,31
2018-09-24T02:50:22.000Z,31
2018-09-24T02:51:22.000Z,31
2018-09-24T02:52:22.000Z,31
2018-09-24T02:53:22.000Z,31
2018-09-24T02:54:22.000Z,31
2018-09-24T02:55:22.000Z,31
2018-09-24T02:56:22.000Z,31
2018-09-24T02:57:22.000Z,31
2018-09-24T02:58:22.000Z,31
2018-09-24T02:59:22.000Z,31
2018-09-24T03:00:22.000Z,31
2018-09-24T03:02:22.000Z,31
2018-09-24T03:03:22.000Z,31
2018-09-24T03:04:22.000Z,31
2018-09-24T03:06:22.000Z,31
2018-09-24T03:07:22.000Z,31
2018-09-24T03:09:22.000Z,31
2018-09-24T03:10:22.000Z,31
2018-09-24T03:11:22.000Z,31
2018-09-24T03:12:22.000Z,31
2018-09-24T03:13:22.000Z,31
2018-09-24T03:15:22.000Z,31
2018-09-24T03:16:22.000Z,31
2018-09-24T03:17:22.000Z,31
2018-09-24T03:18:22.000Z,31
2018-09-24T03:19:22.000Z,31
2018-09-24T03:20:22.000Z,31
2018-09-24T03:21:22.000Z,31
2018-09-24T03:22:22.000Z,31
2018-09-24T03:24:22.000Z,31
2018-09-24T03:25:22.000Z,31
2018-09-24T03:26:22.000Z,31
2018-09-24T03:27:22.000Z,31
2018-09-24T03:28:22.000Z,31
2018-09-24T03:29:22.000Z,31
2018-09-24T03:30:22.000Z,31
2018-09-24T03:31:22.000Z,31
2018-09-24T03:32:22.000Z,31
2018-09-24T03:33:22.000Z,31
2018-09-24T03:34:22.000Z,31
2018-09-24T03:35:22.000Z,31
2018-09-24T03:36:22.000Z,31
2018-09-24T03:37:22.000Z,31
2018-09-24T03:38:22.000Z,31
2018-09-24T03:39:22.000Z,31
2018-09-24T03:40:22.000Z,31
2018-09-24T03:41:22.000Z,31
2018-09-24T03:42:22.000Z,31
2018-09-24T03:43:22.000Z,31
2018-09-24T03:44:22.000Z,31
2018-09-24T03:46:22.000Z,31
2018-09-24T03:47:22.000Z,31
2018-09-24T03:48:22.000Z,31
2018-09-24T03:49:22.000Z,31
2018-09-24T03:50:22.000Z,31
2018-09-24T03:51:22.000Z,31
2018-09-24T03:52:22.000Z,31
2018-09-24T03:53:22.000Z,31
2018-09-24T03:54:22.000Z,31
2018-09-24T03:55:22.000Z,31
2018-09-24T03:57:22.000Z,31
2018-09-24T03:58:22.000Z,31
2018-09-24T03:59:22.000Z,31
2018-09-24T04:00:22.000Z,31
2018-09-24T04:01:22.000Z,31
2018-09-24T04:03:21.000Z,31
2018-09-24T04:04:21.000Z,31
2018-09-24T04:05:21.000Z,31
2018-09-24T04:06:21.000Z,31
2018-09-24T04:08:21.000Z,31
2018-09-24T04:09:21.000Z,31
2018-09-24T04:10:21.000Z,31
2018-09-24T04:11:21.000Z,31
2018-09-24T04:12:21.000Z,31
2018-09-24T04:45:06.000Z,33
2018-09-24T04:46:06.000Z,33
2018-09-24T04:47:06.000Z,33
2018-09-24T04:48:06.000Z,33
2018-09-24T04:49:06.000Z,33
2018-09-24T04:50:06.000Z,33
2018-09-24T04:51:06.000Z,33
2018-09-24T04:52:06.000Z,33
2018-09-24T04:53:06.000Z,32
2018-09-24T04:55:06.000Z,32
2018-09-24T04:56:06.000Z,32
2018-09-24T04:57:06.000Z,32
2018-09-24T04:58:06.000Z,32
2018-09-24T04:59:06.000Z,32
2018-09-24T05:01:06.000Z,32
2018-09-24T05:02:06.000Z,32
2018-09-24T05:03:06.000Z,32
2018-09-24T05:04:06.000Z,32
2018-09-24T05:05:08.000Z,32
2018-09-24T05:06:08.000Z,32
2018-09-24T05:07:08.000Z,31
2018-09-24T05:08:08.000Z,32
2018-09-24T05:09:08.000Z,32
2018-09-24T05:10:08.000Z,31
2018-09-24T05:11:08.000Z,32
2018-09-24T05:12:08.000Z,31
2018-09-24T05:13:08.000Z,31
2018-09-24T05:14:08.000Z,32
2018-09-24T05:15:08.000Z,32
2018-09-24T05:16:08.000Z,32
2018-09-24T05:17:08.000Z,32
2018-09-24T05:18:08.000Z,32
2018-09-24T05:20:08.000Z,32
2018-09-24T05:21:08.000Z,32
2018-09-24T05:22:08.000Z,32
2018-09-24T05:24:08.000Z,32
2018-09-24T05:25:08.000Z,32
2018-09-24T05:26:08.000Z,32
2018-09-24T05:27:08.000Z,32
2018-09-24T05:28:08.000Z,33
2018-09-24T05:29:08.000Z,33
2018-09-24T05:30:08.000Z,32
2018-09-24T05:31:08.000Z,33
2018-09-24T05:32:08.000Z,33
2018-09-24T05:33:08.000Z,33
2018-09-24T05:34:08.000Z,33
2018-09-24T05:35:08.000Z,33
2018-09-24T05:36:08.000Z,33
2018-09-24T05:37:08.000Z,33
2018-09-24T05:38:08.000Z,33
2018-09-24T05:39:08.000Z,33
2018-09-24T05:40:08.000Z,33
2018-09-24T05:41:08.000Z,33
2018-09-24T05:42:08.000Z,33
2018-09-24T05:44:08.000Z,33
2018-09-24T05:45:08.000Z,33
2018-09-24T05:46:08.000Z,33
2018-09-24T05:47:08.000Z,33
2018-09-24T05:49:08.000Z,33
2018-09-24T05:50:08.000Z,33
2018-09-24T05:51:08.000Z,33
2018-09-24T05:52:08.000Z,33
2018-09-24T05:53:08.000Z,33
2018-09-24T05:54:08.000Z,33
2018-09-24T05:55:08.000Z,33
2018-09-24T05:56:08.000Z,33
2018-09-24T05:57:08.000Z,33
2018-09-24T05:58:08.000Z,33
2018-09-24T05:59:08.000Z,33
2018-09-24T06:00:08.000Z,33
2018-09-24T06:02:08.000Z,33
2018-09-24T06:03:08.000Z,33
2018-09-24T06:04:08.000Z,33
2018-09-24T06:05:08.000Z,33
2018-09-24T06:06:08.000Z,33
2018-09-24T06:07:08.000Z,33
2018-09-24T06:08:08.000Z,33
2018-09-24T06:09:08.000Z,33
2018-09-24T06:10:08.000Z,33
2018-09-24T06:11:08.000Z,33
2018-09-24T06:12:08.000Z,33
2018-09-24T06:13:08.000Z,33
2018-09-24T06:14:08.000Z,33
2018-09-24T06:15:08.000Z,33
2018-09-24T06:17:08.000Z,33
2018-09-24T06:18:08.000Z,33
2018-09-24T06:19:08.000Z,33
2018-09-24T06:21:08.000Z,33
2018-09-24T06:22:08.000Z,33
2018-09-24T06:23:08.000Z,33
2018-09-24T06:25:08.000Z,33
2018-09-24T06:26:08.000Z,34
2018-09-24T06:27:08.000Z,34
2018-09-24T06:28:08.000Z,34
2018-09-24T06:29:08.000Z,34
2018-09-24T06:30:08.000Z,34
2018-09-24T06:31:08.000Z,34
2018-09-24T06:32:08.000Z,33
2018-09-24T06:33:08.000Z,33
2018-09-24T06:34:08.000Z,33
2018-09-24T06:36:08.000Z,33
2018-09-24T06:37:08.000Z,33
2018-09-24T06:38:08.000Z,33
2018-09-24T06:39:08.000Z,33
2018-09-24T06:40:08.000Z,33
2018-09-24T06:41:08.000Z,33
2018-09-24T06:42:08.000Z,33
2018-09-24T06:43:08.000Z,33
2018-09-24T06:44:08.000Z,33
2018-09-24T06:45:08.000Z,33
2018-09-24T06:46:08.000Z,33
2018-09-24T06:47:08.000Z,33
2018-09-24T06:48:08.000Z,33
2018-09-24T06:49:08.000Z,33
2018-09-24T06:51:08.000Z,33
2018-09-24T06:52:08.000Z,33
2018-09-24T06:53:08.000Z,33
2018-09-24T06:54:08.000Z,33
2018-09-24T06:56:08.000Z,33
2018-09-24T06:57:08.000Z,33
2018-09-24T06:59:08.000Z,33
2018-09-24T07:00:08.000Z,33
2018-09-24T07:01:08.000Z,33
2018-09-24T07:02:08.000Z,33
2018-09-24T07:03:08.000Z,33
2018-09-24T07:04:08.000Z,33
2018-09-24T07:05:08.000Z,33
2018-09-24T07:06:08.000Z,33
2018-09-24T07:07:08.000Z,32
2018-09-24T07:08:08.000Z,33
2018-09-24T07:09:08.000Z,33
2018-09-24T07:10:08.000Z,32
2018-09-24T07:11:08.000Z,32
2018-09-24T07:12:08.000Z,32
2018-09-24T07:14:08.000Z,32
2018-09-24T07:15:08.000Z,32
2018-09-24T07:16:08.000Z,32
2018-09-24T07:17:08.000Z,32
2018-09-24T07:18:08.000Z,32
2018-09-24T07:19:08.000Z,32
2018-09-24T07:20:08.000Z,32
2018-09-24T07:21:08.000Z,32
2018-09-24T07:23:08.000Z,32
2018-09-24T07:24:08.000Z,32
2018-09-24T07:25:08.000Z,32
2018-09-24T07:26:08.000Z,32
2018-09-24T07:27:08.000Z,32
2018-09-24T07:28:08.000Z,32
2018-09-24T07:29:08.000Z,32
2018-09-24T07:30:08.000Z,31
2018-09-24T07:32:08.000Z,31
2018-09-24T07:33:08.000Z,31
2018-09-24T07:35:08.000Z,31
2018-09-24T07:36:08.000Z,31
2018-09-24T07:38:08.000Z,31
2018-09-24T07:39:08.000Z,31
2018-09-24T07:40:08.000Z,31
2018-09-24T07:41:08.000Z,31
2018-09-24T07:42:08.000Z,31
2018-09-24T07:44:08.000Z,31
2018-09-24T07:46:08.000Z,30
2018-09-24T07:47:08.000Z,31
2018-09-24T07:48:08.000Z,31
2018-09-24T07:49:08.000Z,31
2018-09-24T07:50:08.000Z,30
2018-09-24T07:51:08.000Z,30
2018-09-24T07:52:08.000Z,30
2018-09-24T07:54:08.000Z,31
2018-09-24T07:55:08.000Z,31
2018-09-24T07:56:08.000Z,31
2018-09-24T07:57:08.000Z,31
2018-09-24T07:58:08.000Z,31
2018-09-24T07:59:08.000Z,31
2018-09-24T08:00:08.000Z,31
2018-09-24T08:01:08.000Z,31
2018-09-24T08:02:08.000Z,31
2018-09-24T08:03:08.000Z,32
2018-09-24T08:04:08.000Z,31
2018-09-24T08:05:08.000Z,32
2018-09-24T08:07:08.000Z,32
2018-09-24T08:08:08.000Z,32
2018-09-24T08:09:08.000Z,32
2018-09-24T08:10:08.000Z,32
2018-09-24T08:11:08.000Z,32
2018-09-24T08:12:08.000Z,32
2018-09-24T08:13:08.000Z,32
2018-09-24T08:14:08.000Z,32
2018-09-24T08:15:08.000Z,32
2018-09-24T08:16:08.000Z,32
2018-09-24T08:17:08.000Z,32
2018-09-24T08:18:08.000Z,32
2018-09-24T08:54:42.000Z,35
2018-09-24T08:55:42.000Z,35
2018-09-24T08:57:42.000Z,35
2018-09-24T08:58:42.000Z,35
2018-09-24T08:59:42.000Z,34
2018-09-24T09:00:42.000Z,34
2018-09-24T09:01:42.000Z,34
2018-09-24T09:02:42.000Z,34
2018-09-24T09:03:42.000Z,34
2018-09-24T09:04:42.000Z,34
2018-09-24T09:05:42.000Z,34
2018-09-24T09:07:42.000Z,33
2018-09-24T09:08:42.000Z,33
2018-09-24T09:09:42.000Z,34
2018-09-24T09:10:42.000Z,33
2018-09-24T09:11:42.000Z,33
2018-09-24T09:12:42.000Z,33
2018-09-24T09:13:42.000Z,33
2018-09-24T09:14:42.000Z,33
2018-09-24T09:16:42.000Z,33
2018-09-24T09:17:42.000Z,33
2018-09-24T09:18:42.000Z,33
2018-09-24T09:19:42.000Z,33
2018-09-24T09:20:42.000Z,33
2018-09-24T09:21:42.000Z,33
2018-09-24T09:22:42.000Z,33
2018-09-24T09:24:42.000Z,33
2018-09-24T09:25:42.000Z,33
2018-09-24T09:26:42.000Z,33
2018-09-24T09:27:42.000Z,33
2018-09-24T09:28:42.000Z,33
2018-09-24T09:29:42.000Z,33
2018-09-24T09:30:42.000Z,33
2018-09-24T09:31:42.000Z,33
2018-09-24T09:32:42.000Z,33
2018-09-24T09:33:42.000Z,33
2018-09-24T09:35:42.000Z,33
2018-09-24T09:36:42.000Z,33
2018-09-24T09:38:42.000Z,33
2018-09-24T09:39:42.000Z,33
2018-09-24T09:40:42.000Z,33
2018-09-24T09:41:42.000Z,33
2018-09-24T09:42:42.000Z,33
2018-09-24T09:43:42.000Z,33
2018-09-24T09:44:42.000Z,33
2018-09-24T09:45:42.000Z,33
2018-09-24T09:46:42.000Z,32
2018-09-24T09:47:42.000Z,33
2018-09-24T09:49:42.000Z,32
2018-09-24T09:50:42.000Z,33
2018-09-24T09:52:42.000Z,32
2018-09-24T09:53:42.000Z,33
2018-09-24T09:54:42.000Z,32
2018-09-24T09:55:42.000Z,33
2018-09-24T09:56:42.000Z,33
2018-09-24T09:57:42.000Z,32
2018-09-24T09:59:42.000Z,32
2018-09-24T10:00:42.000Z,33
2018-09-24T10:01:42.000Z,32
2018-09-24T10:02:42.000Z,33
2018-09-24T10:04:42.000Z,32
2018-09-24T10:05:42.000Z,33
2018-09-24T10:06:42.000Z,33
2018-09-24T10:07:42.000Z,33
2018-09-24T10:08:42.000Z,33
2018-09-24T10:09:42.000Z,32
2018-09-24T10:10:42.000Z,33
2018-09-24T10:11:42.000Z,32
2018-09-24T10:12:42.000Z,33
2018-09-24T10:14:42.000Z,32
2018-09-24T10:15:42.000Z,32
2018-09-24T10:16:42.000Z,32
2018-09-24T10:17:42.000Z,32
2018-09-24T10:18:42.000Z,32
2018-09-24T10:20:42.000Z,32
2018-09-24T10:21:42.000Z,32
2018-09-24T10:23:42.000Z,32
2018-09-24T10:24:42.000Z,32
2018-09-24T10:25:42.000Z,32
2018-09-24T10:27:42.000Z,32
2018-09-24T10:28:42.000Z,32
2018-09-24T10:29:42.000Z,32
2018-09-24T10:31:42.000Z,32
2018-09-24T10:33:42.000Z,32
2018-09-24T10:34:42.000Z,32
2018-09-24T10:35:42.000Z,32
2018-09-24T10:36:42.000Z,32
2018-09-24T10:37:42.000Z,32
2018-09-24T10:38:42.000Z,32
2018-09-24T10:39:42.000Z,32
2018-09-24T10:40:42.000Z,32
2018-09-24T10:41:42.000Z,32
2018-09-24T10:42:42.000Z,32
2018-09-24T10:43:42.000Z,32
2018-09-24T10:44:42.000Z,32
2018-09-24T10:45:42.000Z,32
2018-09-24T10:47:42.000Z,32
2018-09-24T10:48:42.000Z,32
2018-09-24T10:49:42.000Z,32
2018-09-24T10:50:42.000Z,32
2018-09-24T10:51:42.000Z,32
2018-09-24T10:52:42.000Z,32
2018-09-24T10:53:42.000Z,32
2018-09-24T10:54:42.000Z,32
2018-09-24T10:55:42.000Z,32
2018-09-24T10:56:42.000Z,32
2018-09-24T10:57:42.000Z,32
2018-09-24T10:58:42.000Z,32
2018-09-24T11:00:42.000Z,32
2018-09-24T11:02:42.000Z,32
2018-09-24T11:03:42.000Z,32
2018-09-24T11:05:42.000Z,32
2018-09-24T11:06:42.000Z,33
2018-09-24T11:07:42.000Z,32
2018-09-24T11:09:42.000Z,32
2018-09-24T11:10:42.000Z,33
2018-09-24T11:11:42.000Z,33
2018-09-24T11:12:42.000Z,33
2018-09-24T11:13:42.000Z,33
2018-09-24T11:14:42.000Z,33
2018-09-24T11:15:42.000Z,33
2018-09-24T11:16:42.000Z,33
2018-09-24T11:17:42.000Z,33
2018-09-24T11:18:42.000Z,33
2018-09-24T11:19:42.000Z,33
2018-09-24T11:21:42.000Z,33
2018-09-24T11:22:42.000Z,33
2018-09-24T11:23:42.000Z,33
2018-09-24T11:24:42.000Z,33
2018-09-24T11:25:42.000Z,33
2018-09-24T11:26:42.000Z,33
2018-09-24T11:27:42.000Z,33
2018-09-24T11:28:42.000Z,33
2018-09-24T11:29:42.000Z,33
2018-09-24T11:30:42.000Z,33
2018-09-24T11:31:42.000Z,33
2018-09-24T11:33:42.000Z,33
2018-09-24T11:34:42.000Z,33
2018-09-24T11:35:42.000Z,33
2018-09-24T11:37:42.000Z,33
2018-09-24T11:38:42.000Z,33
2018-09-24T11:39:42.000Z,33
2018-09-24T11:40:42.000Z,33
2018-09-24T11:41:42.000Z,33
2018-09-24T11:43:42.000Z,33
2018-09-24T11:44:42.000Z,33
2018-09-24T11:45:42.000Z,33
2018-09-24T11:46:42.000Z,33
2018-09-24T11:47:42.000Z,33
2018-09-24T11:48:42.000Z,33
2018-09-24T11:50:42.000Z,33
2018-09-24T11:51:42.000Z,33
2018-09-24T11:52:42.000Z,33
2018-09-24T11:53:42.000Z,33
2018-09-24T11:54:42.000Z,33
2018-09-24T11:56:42.000Z,33
2018-09-24T11:57:42.000Z,33
2018-09-24T11:58:42.000Z,33
2018-09-24T11:59:42.000Z,33
2018-09-24T12:00:42.000Z,33
2018-09-24T12:01:42.000Z,33
2018-09-24T12:02:42.000Z,33
2018-09-24T12:04:42.000Z,33
2018-09-24T12:05:42.000Z,33
2018-09-24T12:06:42.000Z,33
2018-09-24T12:07:42.000Z,33
2018-09-24T12:09:42.000Z,33
2018-09-24T12:10:42.000Z,33
2018-09-24T12:11:42.000Z,33
2018-09-24T12:13:42.000Z,33
2018-09-24T12:14:42.000Z,33
2018-09-24T12:16:42.000Z,33
2018-09-24T12:17:42.000Z,33
2018-09-24T12:18:42.000Z,33
2018-09-24T12:19:42.000Z,33
2018-09-24T12:20:42.000Z,33
2018-09-24T12:21:42.000Z,33
2018-09-24T12:22:42.000Z,33
2018-09-24T12:23:42.000Z,33
2018-09-24T12:25:42.000Z,33
2018-09-24T12:26:42.000Z,33
2018-09-24T12:27:42.000Z,33
2018-09-24T12:28:42.000Z,33
2018-09-24T12:29:42.000Z,33
2018-09-24T12:30:42.000Z,33
2018-09-24T12:31:42.000Z,33
2018-09-24T12:32:42.000Z,33
2018-09-24T12:33:42.000Z,33
2018-09-24T12:34:42.000Z,33
2018-09-24T12:35:42.000Z,33
2018-09-24T12:36:42.000Z,33
2018-09-24T12:37:42.000Z,33
2018-09-24T12:38:42.000Z,33
2018-09-24T12:39:42.000Z,33
2018-09-24T12:40:42.000Z,33
2018-09-24T12:42:42.000Z,32
2018-09-24T12:43:42.000Z,32
2018-09-24T12:44:42.000Z,33
2018-09-24T12:45:42.000Z,32
2018-09-24T12:46:42.000Z,32
2018-09-24T12:47:42.000Z,32
2018-09-24T12:48:42.000Z,32
2018-09-24T12:49:42.000Z,32
2018-09-24T12:50:42.000Z,32
2018-09-24T12:51:42.000Z,32
2018-09-24T12:52:42.000Z,32
2018-09-24T12:54:42.000Z,32
2018-09-24T12:55:42.000Z,32
2018-09-24T12:56:42.000Z,32
2018-09-24T12:58:42.000Z,32
2018-09-24T12:59:42.000Z,32
2018-09-24T13:00:42.000Z,32
2018-09-24T13:01:42.000Z,32
2018-09-24T13:02:42.000Z,32
2018-09-24T13:03:42.000Z,32
2018-09-24T13:04:42.000Z,32
2018-09-24T13:05:42.000Z,32
2018-09-24T13:07:42.000Z,32
2018-09-24T13:08:42.000Z,32
2018-09-24T13:09:42.000Z,32
2018-09-24T13:10:42.000Z,31
2018-09-24T13:12:42.000Z,31
2018-09-24T13:13:42.000Z,31
2018-09-24T13:14:42.000Z,31
2018-09-24T13:15:42.000Z,31
2018-09-24T13:16:42.000Z,31
2018-09-24T13:17:42.000Z,31
2018-09-24T13:19:42.000Z,30
2018-09-24T13:20:42.000Z,29
2018-09-24T13:21:42.000Z,29
2018-09-24T13:22:42.000Z,29
2018-09-24T13:23:42.000Z,29
2018-09-24T13:24:42.000Z,29
2018-09-24T13:25:42.000Z,29
2018-09-24T13:26:42.000Z,28
2018-09-24T13:27:42.000Z,28
2018-09-24T13:28:42.000Z,28
2018-09-24T13:29:42.000Z,28
2018-09-24T13:30:42.000Z,28
2018-09-24T13:31:42.000Z,28
2018-09-24T13:32:42.000Z,27
2018-09-24T13:33:42.000Z,27
2018-09-24T13:34:42.000Z,27
2018-09-24T13:35:42.000Z,27
2018-09-24T13:36:42.000Z,28
2018-09-24T13:37:42.000Z,27
2018-09-24T13:38:42.000Z,28
2018-09-24T13:39:42.000Z,28
2018-09-24T13:41:42.000Z,28
2018-09-24T13:42:42.000Z,28
2018-09-24T13:43:42.000Z,28
2018-09-24T13:45:42.000Z,28
2018-09-24T13:46:42.000Z,28
2018-09-24T13:48:42.000Z,28
2018-09-24T13:49:42.000Z,28
2018-09-24T13:51:42.000Z,28
2018-09-24T13:52:42.000Z,28
2018-09-24T13:53:42.000Z,28
2018-09-24T13:55:42.000Z,28
2018-09-24T13:57:42.000Z,29
2018-09-24T13:58:42.000Z,29
2018-09-24T13:59:42.000Z,29
2018-09-24T14:00:42.000Z,29
2018-09-24T14:01:42.000Z,29
2018-09-24T14:02:42.000Z,29
2018-09-24T14:04:42.000Z,29
2018-09-24T14:05:42.000Z,29
2018-09-24T14:06:42.000Z,29
2018-09-24T14:07:42.000Z,29
2018-09-24T14:08:42.000Z,30
2018-09-24T14:10:42.000Z,30
2018-09-24T14:11:42.000Z,30
2018-09-24T14:12:42.000Z,30
2018-09-24T14:13:42.000Z,30
2018-09-24T14:14:42.000Z,30
2018-09-24T14:15:42.000Z,30
2018-09-24T14:16:42.000Z,30
2018-09-24T14:17:42.000Z,30
2018-09-24T14:18:42.000Z,30
2018-09-24T14:19:42.000Z,30
2018-09-24T14:20:42.000Z,30
2018-09-24T14:21:42.000Z,30
2018-09-24T14:22:42.000Z,30
2018-09-24T14:23:42.000Z,30
2018-09-24T14:24:42.000Z,30
2018-09-24T14:25:42.000Z,30
2018-09-24T14:26:42.000Z,30
2018-09-24T14:27:42.000Z,30
2018-09-24T14:28:42.000Z,30
2018-09-24T14:29:42.000Z,30
2018-09-24T14:30:42.000Z,30
2018-09-24T14:31:42.000Z,30
2018-09-24T14:32:42.000Z,30
2018-09-24T14:33:42.000Z,30
2018-09-24T14:34:42.000Z,30
2018-09-24T14:35:42.000Z,30
2018-09-24T14:36:42.000Z,30
2018-09-24T14:37:42.000Z,30
2018-09-24T14:39:42.000Z,30
2018-09-24T14:40:42.000Z,30
2018-09-24T14:41:42.000Z,30
2018-09-24T14:42:42.000Z,30
2018-09-24T14:43:42.000Z,31
2018-09-24T14:44:42.000Z,31
2018-09-24T14:45:42.000Z,31
2018-09-24T14:46:42.000Z,30
2018-09-24T14:47:42.000Z,31
2018-09-24T14:48:42.000Z,31
2018-09-24T14:49:42.000Z,31
2018-09-24T14:51:42.000Z,31
2018-09-24T14:52:42.000Z,31
2018-09-24T14:53:42.000Z,31
2018-09-24T14:54:42.000Z,31
2018-09-24T16:11:38.000Z,34
2018-09-24T16:12:39.000Z,34
2018-09-24T16:13:39.000Z,34
2018-09-24T16:14:39.000Z,34
2018-09-24T16:15:39.000Z,34
2018-09-24T16:16:39.000Z,34
2018-09-24T16:17:39.000Z,34
2018-09-24T16:18:39.000Z,34
2018-09-24T16:20:39.000Z,33
2018-09-24T16:21:39.000Z,33
2018-09-24T16:22:39.000Z,33
2018-09-24T16:23:39.000Z,33
2018-09-24T16:24:39.000Z,33
2018-09-24T16:25:39.000Z,33
2018-09-24T16:26:39.000Z,33
2018-09-24T16:27:39.000Z,33
2018-09-24T16:28:39.000Z,33
2018-09-24T16:29:39.000Z,33
2018-09-24T16:30:39.000Z,32
2018-09-24T16:32:39.000Z,32
2018-09-24T16:33:39.000Z,32
2018-09-24T16:34:39.000Z,32
2018-09-24T16:35:39.000Z,32
2018-09-24T16:36:39.000Z,32
2018-09-24T16:37:39.000Z,32
2018-09-24T16:38:39.000Z,32
2018-09-24T16:40:39.000Z,32
2018-09-24T16:42:39.000Z,32
2018-09-24T16:43:39.000Z,32
2018-09-24T16:44:39.000Z,32
2018-09-24T16:45:39.000Z,32
2018-09-24T16:46:39.000Z,32
2018-09-24T16:47:39.000Z,32
2018-09-24T16:48:39.000Z,32
2018-09-24T16:49:39.000Z,32
2018-09-24T16:50:39.000Z,32
2018-09-24T16:51:39.000Z,32
2018-09-24T16:52:39.000Z,32
2018-09-24T16:53:39.000Z,32
2018-09-24T16:54:39.000Z,32
2018-09-24T16:55:39.000Z,32
2018-09-24T16:56:39.000Z,32
2018-09-24T16:58:39.000Z,32
2018-09-24T16:59:39.000Z,32
2018-09-24T17:00:39.000Z,32
2018-09-24T17:01:39.000Z,32
2018-09-24T17:02:39.000Z,32
2018-09-24T17:05:34.000Z,32
2018-09-24T17:06:34.000Z,32
2018-09-24T17:07:34.000Z,32
2018-09-24T17:08:34.000Z,31
2018-09-24T17:09:34.000Z,31
2018-09-24T17:10:34.000Z,31
2018-09-24T17:11:34.000Z,31
2018-09-24T17:12:34.000Z,31
2018-09-24T17:13:34.000Z,31
2018-09-24T17:14:34.000Z,31
2018-09-24T17:15:34.000Z,31
2018-09-24T17:16:34.000Z,31
2018-09-24T17:17:34.000Z,31
2018-09-24T17:19:34.000Z,31
2018-09-24T17:20:34.000Z,31
2018-09-24T17:21:34.000Z,31
2018-09-24T17:22:34.000Z,32
2018-09-24T17:23:34.000Z,31
2018-09-24T17:24:34.000Z,31
2018-09-24T17:25:34.000Z,31
2018-09-24T17:26:34.000Z,31
2018-09-24T17:27:34.000Z,31
2018-09-24T17:29:34.000Z,31
2018-09-24T17:30:34.000Z,31
2018-09-24T17:31:34.000Z,31
2018-09-24T17:32:34.000Z,31
2018-09-24T17:33:34.000Z,31
2018-09-24T17:34:34.000Z,31
2018-09-24T17:35:34.000Z,31
2018-09-24T17:36:34.000Z,32
2018-09-24T17:37:34.000Z,32
2018-09-24T17:38:34.000Z,31
2018-09-24T17:39:34.000Z,32
2018-09-24T17:41:34.000Z,31
2018-09-24T17:42:34.000Z,31
2018-09-24T17:43:34.000Z,32
2018-09-24T17:44:34.000Z,31
2018-09-24T17:45:34.000Z,32
2018-09-24T17:46:34.000Z,31
2018-09-24T22:29:52.000Z,35
2018-09-24T22:30:52.000Z,35
2018-09-24T22:31:52.000Z,35
2018-09-24T22:32:52.000Z,35
2018-09-24T22:33:52.000Z,34
2018-09-24T22:35:52.000Z,34
2018-09-24T22:36:52.000Z,34
2018-09-24T22:38:52.000Z,34
2018-09-24T22:39:52.000Z,34
2018-09-24T22:40:52.000Z,34
2018-09-24T22:41:52.000Z,34
2018-09-24T22:42:52.000Z,33
2018-09-24T22:43:52.000Z,33
2018-09-24T22:44:52.000Z,33
2018-09-24T22:45:52.000Z,33
2018-09-24T22:46:52.000Z,33
2018-09-24T22:47:52.000Z,33
2018-09-24T22:48:52.000Z,33
2018-09-24T22:49:52.000Z,33
2018-09-24T22:50:52.000Z,33
2018-09-24T22:51:52.000Z,33
2018-09-24T22:52:52.000Z,33
2018-09-24T22:53:52.000Z,33
2018-09-24T22:55:52.000Z,32
2018-09-24T22:56:52.000Z,33
2018-09-24T22:58:52.000Z,32
2018-09-24T22:59:52.000Z,33
2018-09-24T23:00:52.000Z,33
2018-09-24T23:01:52.000Z,33
2018-09-24T23:03:52.000Z,32
2018-09-24T23:04:52.000Z,32
2018-09-24T23:05:52.000Z,32
2018-09-24T23:06:52.000Z,32
2018-09-24T23:07:52.000Z,32
2018-09-24T23:08:52.000Z,32
2018-09-24T23:09:52.000Z,32
2018-09-24T23:10:52.000Z,32
2018-09-24T23:11:52.000Z,32
2018-09-24T23:12:52.000Z,32